Time;durP1;ratioP1;P1;durP2;ratioP2;P2;SDS_P1;SDS_P2;PMS_P1;PMS_P2;Temp;Humidity;BMP_temperature;BMP_pressure;BME280_temperature;BME280_humidity;BME280_pressure;Samples;Min_cycle;Max_cycle;Signal;HPM_P1;HPM_P2
2022/03/19 00:01:00;;;;;;;8.40;4.73;;;;;;;0.61;53.27;96430.75;5050148;28;20577;-62
2022/03/19 00:03:29;;;;;;;5.70;3.90;;;;;;;0.65;51.48;96448.19;5051441;28;20264;-64
2022/03/19 00:05:55;;;;;;;9.13;4.53;;;;;;;0.67;52.04;96436.47;5051544;28;20233;-64
2022/03/19 00:08:21;;;;;;;6.03;3.83;;;;;;;0.54;51.13;96446.72;5051438;28;20634;-63
2022/03/19 00:10:47;;;;;;;6.97;3.97;;;;;;;0.26;51.86;96446.38;5051264;28;20284;-60
2022/03/19 00:13:12;;;;;;;7.17;4.20;;;;;;;0.18;51.45;96453.19;5049852;28;20268;-63
2022/03/19 00:15:41;;;;;;;6.73;4.00;;;;;;;-0.04;52.91;96414.31;5034678;23;20240;-61
2022/03/19 00:18:07;;;;;;;6.17;3.87;;;;;;;0.40;51.66;96451.16;5011504;28;20262;-61
2022/03/19 00:20:36;;;;;;;7.13;3.87;;;;;;;0.38;51.34;96446.19;5011594;28;20241;-64
2022/03/19 00:23:02;;;;;;;7.63;3.50;;;;;;;0.48;51.15;96435.16;4998895;23;20612;-64
2022/03/19 00:25:27;;;;;;;7.37;4.07;;;;;;;0.56;51.78;96438.34;4991907;28;20253;-65
2022/03/19 00:27:59;;;;;;;7.07;4.30;;;;;;;0.78;50.79;96456.31;4991931;28;20203;-63
2022/03/19 00:30:25;;;;;;;7.47;4.33;;;;;;;0.93;50.36;96457.72;4993582;28;20230;-61
2022/03/19 00:32:51;;;;;;;6.57;4.40;;;;;;;0.85;50.54;96438.66;4993577;28;20650;-62
2022/03/19 00:35:16;;;;;;;8.47;4.63;;;;;;;0.83;51.27;96437.84;4995814;28;20215;-62
2022/03/19 00:37:46;;;;;;;8.30;5.00;;;;;;;0.96;50.04;96445.13;4995739;28;20180;-61
2022/03/19 00:40:13;;;;;;;6.37;3.87;;;;;;;1.12;49.42;96462.34;4978838;28;20202;-65
2022/03/19 00:42:39;;;;;;;9.00;4.17;;;;;;;0.98;50.02;96451.78;4978054;28;20188;-61
2022/03/19 00:45:05;;;;;;;5.77;3.60;;;;;;;1.13;50.02;96455.66;4995545;28;20199;-63
2022/03/19 00:47:31;;;;;;;7.87;3.93;;;;;;;1.20;50.04;96448.00;4995316;28;20211;-62
2022/03/19 00:49:56;;;;;;;9.77;4.67;;;;;;;1.07;50.70;96393.19;5014608;23;20230;-60
2022/03/19 00:52:22;;;;;;;7.37;4.33;;;;;;;1.16;51.58;96430.56;5034797;28;20193;-66
2022/03/19 00:54:47;;;;;;;5.97;4.07;;;;;;;0.88;52.25;96434.44;5034467;28;20639;-65
2022/03/19 00:57:12;;;;;;;6.80;4.33;;;;;;;0.89;52.32;96431.91;5034617;28;20671;-62
2022/03/19 00:59:38;;;;;;;8.03;4.17;;;;;;;0.98;51.24;96450.94;5034622;28;20198;-61
2022/03/19 01:02:03;;;;;;;8.33;4.77;;;;;;;0.65;51.98;96427.34;5034607;28;20613;-63
2022/03/19 01:04:29;;;;;;;7.77;5.07;;;;;;;0.86;51.27;96449.50;5034664;28;20236;-64
2022/03/19 01:06:55;;;;;;;8.60;5.17;;;;;;;0.77;51.66;96427.94;5035139;28;20210;-62
2022/03/19 01:09:20;;;;;;;12.43;6.20;;;;;;;0.56;52.41;96432.53;5034618;28;20213;-60
2022/03/19 01:11:46;;;;;;;9.37;5.33;;;;;;;0.43;53.20;96411.06;5034278;28;20178;-64
2022/03/19 01:14:11;;;;;;;9.50;5.20;;;;;;;0.60;53.49;96421.59;5034030;28;20175;-64
2022/03/19 01:16:37;;;;;;;9.23;5.43;;;;;;;0.50;53.93;96412.63;5016575;28;20189;-61
2022/03/19 01:19:03;;;;;;;10.07;5.30;;;;;;;0.58;54.22;96413.31;5034116;28;20553;-63
2022/03/19 01:21:28;;;;;;;9.03;5.17;;;;;;;0.52;53.75;96411.75;5033904;28;20182;-61
2022/03/19 01:23:53;;;;;;;9.63;4.93;;;;;;;0.54;53.83;96419.22;5014935;28;20632;-60
2022/03/19 01:26:19;;;;;;;8.23;5.03;;;;;;;0.52;54.08;96408.41;5034514;28;20587;-61
2022/03/19 01:28:44;;;;;;;8.87;5.67;;;;;;;0.59;53.45;96424.94;5016138;28;20656;-61
2022/03/19 01:31:11;;;;;;;12.83;6.90;;;;;;;0.41;53.26;96417.75;5016466;28;20210;-61
2022/03/19 01:33:37;;;;;;;13.13;6.83;;;;;;;0.38;53.56;96402.81;5033860;28;20188;-61
2022/03/19 01:36:03;;;;;;;10.03;6.03;;;;;;;0.16;53.85;96407.38;5034434;28;20292;-60
2022/03/19 01:38:37;;;;;;;13.90;6.43;;;;;;;0.19;54.78;96399.81;5034037;28;20585;-64
2022/03/19 01:41:03;;;;;;;9.90;5.70;;;;;;;0.26;54.21;96388.03;5034077;28;20667;-61
2022/03/19 01:43:28;;;;;;;9.60;6.20;;;;;;;0.33;54.29;96399.56;5015580;28;20214;-61
2022/03/19 01:45:54;;;;;;;9.50;5.97;;;;;;;0.09;54.63;96385.81;5033443;28;20263;-60
2022/03/19 01:48:21;;;;;;;9.13;6.07;;;;;;;0.23;54.46;96383.06;5033569;28;20221;-60
2022/03/19 01:50:46;;;;;;;8.10;5.53;;;;;;;0.41;54.03;96397.75;5033646;28;20253;-60
2022/03/19 01:53:11;;;;;;;9.40;5.27;;;;;;;0.44;54.52;96388.53;5033738;28;20182;-63
2022/03/19 01:55:37;;;;;;;9.20;5.23;;;;;;;0.58;53.68;96400.78;5015587;28;20213;-62
2022/03/19 01:58:04;;;;;;;14.40;5.13;;;;;;;0.53;54.29;96393.38;5015623;28;20216;-64
2022/03/19 02:00:29;;;;;;;9.80;5.33;;;;;;;0.61;53.66;96405.72;5015990;28;20209;-63
2022/03/19 02:02:55;;;;;;;11.00;6.40;;;;;;;0.52;54.41;96365.88;5033343;28;20187;-61
2022/03/19 02:05:22;;;;;;;12.20;6.90;;;;;;;0.65;55.02;96387.31;5033311;28;20229;-63
2022/03/19 02:07:48;;;;;;;9.83;6.07;;;;;;;0.68;55.50;96382.25;5015451;28;20209;-62
2022/03/19 02:10:16;;;;;;;10.93;6.50;;;;;;;0.62;54.64;96379.88;5015267;28;20198;-62
2022/03/19 02:12:42;;;;;;;13.90;6.93;;;;;;;0.73;55.37;96377.97;5015344;28;20193;-64
2022/03/19 02:15:09;;;;;;;14.57;7.00;;;;;;;0.70;56.26;96371.38;5033501;28;20240;-61
2022/03/19 02:17:35;;;;;;;10.07;6.07;;;;;;;0.82;55.50;96376.16;5033073;28;20269;-62
2022/03/19 02:20:02;;;;;;;8.83;5.97;;;;;;;0.69;55.51;96382.22;5033205;28;20328;-62
2022/03/19 02:22:28;;;;;;;12.63;6.03;;;;;;;0.70;55.37;96383.06;5033084;28;20264;-61
2022/03/19 02:27:39;;;;;;;10.27;5.03;;;;;;;0.84;54.61;96393.63;5033533;28;20279;-65
2022/03/19 02:30:10;;;;;;;8.90;5.10;;;;;;;0.64;54.61;96390.69;5033316;28;20198;-65
2022/03/19 02:32:38;;;;;;;6.67;4.63;;;;;;;0.52;55.17;96385.91;5015672;28;20193;-61
2022/03/19 02:35:04;;;;;;;12.40;5.53;;;;;;;0.28;54.68;96376.31;5032968;28;20202;-60
2022/03/19 02:37:38;;;;;;;8.10;5.03;;;;;;;0.53;54.23;96392.53;5032859;28;20186;-63
2022/03/19 02:40:04;;;;;;;9.33;5.03;;;;;;;0.46;55.33;96386.00;5032708;28;20207;-64
2022/03/19 02:42:30;;;;;;;11.90;5.10;;;;;;;0.41;54.55;96393.59;5032532;28;20189;-61
2022/03/19 02:44:55;;;;;;;9.07;5.63;;;;;;;0.18;55.26;96370.66;5032632;28;20285;-63
2022/03/19 02:47:21;;;;;;;10.60;5.00;;;;;;;0.38;55.05;96388.66;5032366;28;20292;-63
2022/03/19 02:49:46;;;;;;;11.20;5.00;;;;;;;0.48;54.56;96404.31;5032589;28;20217;-60
2022/03/19 02:52:11;;;;;;;9.57;5.93;;;;;;;0.59;54.02;96410.78;5014914;28;20182;-60
2022/03/19 02:54:38;;;;;;;13.60;5.20;;;;;;;0.50;54.07;96412.63;5032556;28;20218;-61
2022/03/19 02:57:03;;;;;;;9.20;4.90;;;;;;;0.35;54.65;96408.69;5014251;28;20590;-63
2022/03/19 02:59:32;;;;;;;8.53;5.70;;;;;;;0.16;54.68;96404.03;5032488;28;20202;-63
2022/03/19 03:02:03;;;;;;;8.70;5.20;;;;;;;-0.13;56.27;96384.50;5032280;28;20669;-61
2022/03/19 03:04:29;;;;;;;9.43;5.53;;;;;;;-0.12;56.29;96389.47;5014432;28;20295;-60
2022/03/19 03:07:00;;;;;;;9.00;5.03;;;;;;;-0.12;55.85;96391.97;5032197;28;20181;-61
2022/03/19 03:09:28;;;;;;;9.90;5.90;;;;;;;-0.06;56.25;96394.38;5032278;28;20285;-60
2022/03/19 03:11:54;;;;;;;11.10;4.90;;;;;;;-0.19;57.55;96377.09;5032526;28;20178;-62
2022/03/19 03:14:20;;;;;;;13.10;6.27;;;;;;;-0.17;57.28;96383.72;5032190;28;20831;-63
2022/03/19 03:16:47;;;;;;;11.73;5.60;;;;;;;-0.15;57.33;96371.22;5032213;28;20679;-63
2022/03/19 03:19:13;;;;;;;8.97;5.60;;;;;;;-0.06;58.00;96376.88;5014240;28;20213;-61
2022/03/19 03:21:43;;;;;;;11.57;6.53;;;;;;;-0.19;59.17;96367.09;5014796;28;20190;-64
2022/03/19 03:24:09;;;;;;;11.53;7.10;;;;;;;-0.46;58.61;96320.88;5031795;28;20181;-61
2022/03/19 03:26:36;;;;;;;14.97;7.57;;;;;;;0.02;58.74;96370.94;5014042;28;20189;-65
2022/03/19 03:29:02;;;;;;;12.63;7.23;;;;;;;0.00;59.08;96366.78;5031792;28;20213;-64
2022/03/19 03:31:28;;;;;;;10.33;6.47;;;;;;;0.09;59.09;96374.97;5015319;28;20217;-61
2022/03/19 03:33:54;;;;;;;13.90;7.07;;;;;;;0.11;58.64;96389.09;5031924;28;20233;-61
2022/03/19 03:36:20;;;;;;;11.03;6.90;;;;;;;0.07;58.90;96381.66;5014074;28;20687;-60
2022/03/19 03:38:46;;;;;;;10.20;6.33;;;;;;;0.07;58.45;96392.50;5031803;28;20183;-63
2022/03/19 03:41:11;;;;;;;10.50;5.60;;;;;;;0.19;56.88;96421.47;5032218;28;20722;-63
2022/03/19 03:43:37;;;;;;;9.83;5.83;;;;;;;0.04;56.55;96402.56;5031796;28;20671;-64
2022/03/19 03:46:04;;;;;;;10.23;4.87;;;;;;;0.00;56.69;96409.28;5031439;28;20199;-64
2022/03/19 03:48:29;;;;;;;15.97;5.37;;;;;;;-0.18;56.67;96396.22;5031551;28;20702;-60
2022/03/19 03:50:57;;;;;;;12.97;5.67;;;;;;;-0.22;56.95;96410.44;5013918;28;20296;-61
2022/03/19 03:53:25;;;;;;;7.07;4.80;;;;;;;-0.31;56.95;96404.75;5013863;28;20189;-62
2022/03/19 03:55:51;;;;;;;15.20;5.33;;;;;;;-0.23;57.11;96405.47;5031423;28;20198;-63
2022/03/19 03:58:16;;;;;;;7.73;5.20;;;;;;;-0.21;56.17;96421.28;4997332;28;20217;-64
2022/03/19 04:00:42;;;;;;;9.60;5.47;;;;;;;-0.31;56.46;96419.75;5031794;28;20233;-61
2022/03/19 04:03:07;;;;;;;11.20;5.27;;;;;;;-0.37;55.78;96418.19;5031240;28;20190;-63
2022/03/19 04:05:36;;;;;;;11.93;6.07;;;;;;;-0.63;57.39;96387.75;5031654;28;20201;-62
2022/03/19 04:08:03;;;;;;;8.93;5.37;;;;;;;-0.48;56.59;96405.00;5033176;28;20212;-60
2022/03/19 04:10:30;;;;;;;12.63;5.63;;;;;;;-0.53;57.81;96398.44;5017869;28;20205;-60
2022/03/19 04:12:55;;;;;;;12.30;6.07;;;;;;;-0.56;57.61;96396.78;5017645;28;20186;-60
2022/03/19 04:15:21;;;;;;;14.63;6.97;;;;;;;-0.59;58.07;96389.34;5017952;28;20262;-59
2022/03/19 04:17:46;;;;;;;13.17;7.10;;;;;;;-0.53;58.58;96388.44;5035731;28;20189;-65
2022/03/19 04:20:13;;;;;;;12.53;6.90;;;;;;;-0.55;57.83;96390.13;5035411;28;20282;-64
2022/03/19 04:22:40;;;;;;;15.43;7.10;;;;;;;-0.74;58.79;96383.72;5018092;28;20205;-63
2022/03/19 04:25:14;;;;;;;13.83;7.03;;;;;;;-0.66;59.33;96382.78;5035451;28;20209;-61
2022/03/19 04:27:41;;;;;;;10.13;6.97;;;;;;;-0.63;59.13;96382.75;5002476;23;20231;-64
2022/03/19 04:30:08;;;;;;;15.00;8.07;;;;;;;-0.98;58.65;96374.88;4995967;28;20284;-63
2022/03/19 04:32:44;;;;;;;13.30;7.40;;;;;;;-0.92;59.94;96374.81;4995931;28;20177;-64
2022/03/19 04:37:58;;;;;;;12.77;7.17;;;;;;;-1.05;59.93;96369.13;4996026;28;20177;-64
2022/03/19 04:40:24;;;;;;;14.97;7.27;;;;;;;-1.09;61.16;96374.22;4995682;28;20218;-63
2022/03/19 04:42:49;;;;;;;14.10;7.73;;;;;;;-1.51;61.93;96323.13;5039104;23;20232;-61
2022/03/19 04:45:15;;;;;;;15.70;8.47;;;;;;;-0.95;61.81;96389.84;5058586;23;20678;-63
2022/03/19 04:47:40;;;;;;;16.17;8.97;;;;;;;-0.91;61.88;96384.75;5055049;28;20269;-63
2022/03/19 04:50:06;;;;;;;17.93;8.90;;;;;;;-0.93;62.19;96368.97;5059138;23;20294;-64
2022/03/19 04:52:34;;;;;;;14.17;8.50;;;;;;;-0.95;62.65;96369.88;5035467;28;20557;-63
2022/03/19 04:55:00;;;;;;;14.83;8.00;;;;;;;-0.98;63.84;96368.22;5034951;28;20201;-61
2022/03/19 04:57:29;;;;;;;18.50;8.47;;;;;;;-0.85;64.41;96379.69;5041107;23;20624;-61
2022/03/19 04:59:55;;;;;;;15.93;9.27;;;;;;;-0.61;63.66;96396.03;5034555;28;20752;-63
2022/03/19 05:02:24;;;;;;;16.27;8.90;;;;;;;-0.82;63.83;96338.91;5034889;28;20253;-64
2022/03/19 05:04:51;;;;;;;16.13;8.37;;;;;;;-0.63;64.74;96382.75;5059105;23;20288;-64
2022/03/19 05:07:19;;;;;;;16.37;8.30;;;;;;;-0.73;64.49;96361.25;5053249;28;20216;-64
2022/03/19 05:12:36;;;;;;;12.73;7.33;;;;;;;-0.16;61.28;96430.34;5054662;28;20236;-63
2022/03/19 05:15:03;;;;;;;14.83;7.30;;;;;;;-0.23;61.49;96432.97;5053396;28;20750;-63
2022/03/19 05:17:29;;;;;;;15.13;6.83;;;;;;;-0.44;61.32;96428.25;5054201;28;20201;-60
2022/03/19 05:19:54;;;;;;;10.93;6.30;;;;;;;-0.55;61.49;96430.09;5053364;28;20752;-64
2022/03/19 05:22:20;;;;;;;10.47;5.93;;;;;;;-0.49;60.50;96458.31;5053997;28;20196;-64
2022/03/19 05:24:46;;;;;;;11.90;5.93;;;;;;;-0.26;59.37;96470.47;5054204;28;20200;-64
2022/03/19 05:27:11;;;;;;;8.80;5.50;;;;;;;-0.17;58.58;96478.69;5053871;28;20200;-65
2022/03/19 05:29:38;;;;;;;11.17;6.13;;;;;;;-0.13;60.91;96440.31;5054147;28;20723;-63
2022/03/19 05:32:05;;;;;;;10.70;6.43;;;;;;;-0.04;58.28;96472.66;5053872;28;20177;-63
2022/03/19 05:34:31;;;;;;;11.63;6.47;;;;;;;0.02;58.47;96474.25;5053806;28;20196;-64
2022/03/19 05:37:01;;;;;;;10.07;6.33;;;;;;;0.10;57.58;96492.47;5052525;28;20268;-64
2022/03/19 05:39:31;;;;;;;14.17;6.80;;;;;;;0.14;56.84;96500.75;5053733;28;20286;-65
2022/03/19 05:41:57;;;;;;;13.03;6.77;;;;;;;0.23;56.05;96510.59;5053923;28;20180;-60
2022/03/19 05:44:22;;;;;;;11.00;5.87;;;;;;;0.11;56.83;96498.28;5053621;28;20230;-63
2022/03/19 05:46:48;;;;;;;8.53;5.53;;;;;;;0.29;55.50;96515.50;5035589;28;20557;-62
2022/03/19 05:49:14;;;;;;;7.43;5.00;;;;;;;0.44;55.01;96523.63;5053965;28;20188;-63
2022/03/19 05:51:40;;;;;;;10.00;5.20;;;;;;;0.40;55.03;96521.19;5053440;28;20196;-61
2022/03/19 05:54:06;;;;;;;12.37;5.80;;;;;;;0.27;56.38;96492.19;5053963;28;20259;-66
2022/03/19 05:56:31;;;;;;;12.50;6.90;;;;;;;-0.11;56.86;96493.59;5036128;28;20331;-61
2022/03/19 05:58:57;;;;;;;17.77;7.50;;;;;;;-0.47;57.87;96484.09;5052226;28;20188;-62
2022/03/19 06:01:26;;;;;;;13.83;6.73;;;;;;;-0.48;58.32;96464.09;5053260;28;20683;-61
2022/03/19 06:03:59;;;;;;;15.00;7.07;;;;;;;-0.76;60.84;96441.16;5053242;28;20199;-65
2022/03/19 06:06:25;;;;;;;17.47;7.03;;;;;;;-0.51;59.90;96446.69;5053130;28;20223;-64
2022/03/19 06:08:51;;;;;;;12.13;7.00;;;;;;;-0.57;60.37;96450.09;5053771;28;20797;-63
2022/03/19 06:11:17;;;;;;;15.27;7.13;;;;;;;-0.53;60.48;96438.38;5053203;28;20197;-65
2022/03/19 06:13:43;;;;;;;16.43;7.80;;;;;;;-0.58;61.26;96437.59;5053583;28;20196;-61
2022/03/19 06:16:09;;;;;;;19.33;8.07;;;;;;;-0.56;61.84;96425.91;5051731;28;20262;-62
2022/03/19 06:18:35;;;;;;;14.23;7.60;;;;;;;-0.54;62.94;96416.72;5053248;28;20188;-63
2022/03/19 06:21:00;;;;;;;14.07;7.97;;;;;;;-0.60;62.82;96417.66;5051601;28;20195;-61
2022/03/19 06:23:26;;;;;;;16.90;8.57;;;;;;;-0.82;63.94;96397.97;5053214;28;20208;-60
2022/03/19 06:25:52;;;;;;;16.70;8.23;;;;;;;-0.63;63.19;96414.38;5052820;28;20203;-62
2022/03/19 06:28:18;;;;;;;17.53;8.37;;;;;;;-0.60;63.29;96412.66;5053041;28;20310;-64
2022/03/19 06:30:44;;;;;;;17.37;8.90;;;;;;;-0.61;63.13;96418.50;5051261;28;20292;-63
2022/03/19 06:33:11;;;;;;;20.87;9.00;;;;;;;-0.66;64.24;96412.75;5053018;28;20267;-64
2022/03/19 06:38:24;;;;;;;17.07;8.43;;;;;;;-0.20;62.57;96433.75;5053374;28;20716;-61
2022/03/19 06:40:49;;;;;;;18.00;9.00;;;;;;;-0.18;62.09;96443.69;5052508;28;20587;-61
2022/03/19 06:43:15;;;;;;;17.73;9.47;;;;;;;-0.19;63.98;96409.59;5052728;28;20656;-60
2022/03/19 06:45:40;;;;;;;17.60;9.13;;;;;;;0.12;61.95;96442.44;5051083;28;20693;-63
2022/03/19 06:48:06;;;;;;;15.77;9.37;;;;;;;0.39;60.81;96465.31;5052619;28;20217;-62
2022/03/19 06:50:31;;;;;;;14.13;8.80;;;;;;;0.67;58.98;96489.03;5052517;28;20201;-62
2022/03/19 06:52:57;;;;;;;19.10;9.57;;;;;;;0.62;59.40;96475.78;5051173;28;20186;-64
2022/03/19 06:55:23;;;;;;;16.87;8.70;;;;;;;0.41;58.90;96472.78;5049158;23;20665;-64
2022/03/19 06:57:48;;;;;;;15.57;8.13;;;;;;;0.60;58.69;96479.16;5032327;28;20184;-63
2022/03/19 07:00:14;;;;;;;15.00;8.70;;;;;;;0.82;57.90;96492.94;5032360;28;20202;-64
2022/03/19 07:02:51;;;;;;;17.57;8.93;;;;;;;1.17;55.57;96513.16;5032010;28;20212;-61
2022/03/19 07:05:25;;;;;;;15.70;9.27;;;;;;;1.40;53.84;96533.59;5032403;28;20292;-64
2022/03/19 07:07:51;;;;;;;17.43;9.40;;;;;;;1.38;53.54;96527.78;5031721;28;20343;-63
2022/03/19 07:10:18;;;;;;;16.00;9.80;;;;;;;1.52;53.68;96530.88;5014371;28;20217;-61
2022/03/19 07:12:49;;;;;;;16.20;9.10;;;;;;;1.68;53.85;96527.19;5032080;28;20175;-62
2022/03/19 07:15:18;;;;;;;19.87;10.83;;;;;;;1.79;54.25;96518.63;5014178;28;20260;-64
2022/03/19 07:17:44;;;;;;;15.10;9.40;;;;;;;1.64;54.78;96504.72;5033750;28;20197;-64
2022/03/19 07:20:12;;;;;;;18.73;9.23;;;;;;;1.46;52.97;96533.47;5032687;28;20231;-64
2022/03/19 07:22:59;;;;;;;20.33;9.50;;;;;;;1.64;53.64;96520.59;5031791;28;20283;-65
2022/03/19 07:25:35;;;;;;;15.13;8.77;;;;;;;1.78;52.58;96534.53;5032131;28;20276;-63
2022/03/19 07:28:10;;;;;;;14.47;9.13;;;;;;;2.07;52.13;96540.59;5014050;28;20287;-63
2022/03/19 07:30:36;;;;;;;18.80;8.83;;;;;;;2.37;51.90;96536.56;5032131;28;20277;-64
2022/03/19 07:33:02;;;;;;;15.23;8.57;;;;;;;2.34;52.52;96539.16;5031925;28;20251;-63
2022/03/19 07:35:28;;;;;;;14.87;8.63;;;;;;;2.29;51.40;96551.81;5031914;28;20747;-64
2022/03/19 07:37:54;;;;;;;16.67;8.67;;;;;;;2.26;51.13;96551.84;5031598;28;20182;-61
2022/03/19 07:43:07;;;;;;;19.73;9.50;;;;;;;2.24;52.06;96518.44;5031223;28;20220;-60
2022/03/19 07:45:33;;;;;;;14.53;8.70;;;;;;;2.64;55.09;96543.47;5031291;28;20222;-60
2022/03/19 07:47:59;;;;;;;17.57;9.37;;;;;;;3.15;52.15;96562.28;5031538;28;20324;-61
2022/03/19 07:50:25;;;;;;;19.30;8.97;;;;;;;3.19;52.11;96542.94;5031762;28;20688;-62
2022/03/19 07:52:51;;;;;;;20.30;10.10;;;;;;;3.42;49.62;96571.63;5014168;28;20225;-64
2022/03/19 07:55:17;;;;;;;18.47;9.80;;;;;;;3.49;48.70;96599.97;5013874;28;20210;-63
2022/03/19 07:57:43;;;;;;;18.40;10.00;;;;;;;3.46;49.58;96558.97;5030111;28;20189;-63
2022/03/19 08:00:09;;;;;;;13.77;9.63;;;;;;;3.52;49.61;96556.28;5037998;23;20225;-63
2022/03/19 08:02:35;;;;;;;19.80;10.00;;;;;;;3.63;50.16;96549.31;5031429;28;20664;-64
2022/03/19 08:05:03;;;;;;;16.73;10.53;;;;;;;3.89;53.50;96531.78;5031218;28;20225;-64
2022/03/19 08:07:29;;;;;;;18.00;10.43;;;;;;;4.10;48.92;96586.56;5013619;28;20305;-61
2022/03/19 08:09:54;;;;;;;20.20;10.87;;;;;;;3.71;49.88;96543.22;5031355;28;20259;-63
2022/03/19 08:12:20;;;;;;;18.83;10.53;;;;;;;3.67;51.25;96536.63;5031293;28;20190;-62
2022/03/19 08:14:46;;;;;;;21.73;11.20;;;;;;;3.68;51.51;96509.75;5031092;28;20198;-62
2022/03/19 08:17:12;;;;;;;23.77;10.70;;;;;;;4.06;51.94;96517.06;5031248;28;20178;-64
2022/03/19 08:19:38;;;;;;;23.87;11.33;;;;;;;4.28;49.48;96560.03;5030988;28;20676;-64
2022/03/19 08:22:04;;;;;;;24.70;12.57;;;;;;;4.38;48.71;96559.72;5031554;28;20405;-64
2022/03/19 08:24:29;;;;;;;19.00;10.80;;;;;;;4.28;49.42;96544.91;5013534;28;20292;-65
2022/03/19 08:26:55;;;;;;;16.27;9.53;;;;;;;4.56;46.87;96575.94;5031413;28;20226;-62
2022/03/19 08:29:24;;;;;;;17.60;9.77;;;;;;;4.41;43.92;96594.84;5031434;28;20218;-61
2022/03/19 08:31:54;;;;;;;16.30;9.20;;;;;;;4.74;45.04;96566.13;5013686;28;20190;-64
2022/03/19 08:34:20;;;;;;;13.90;9.03;;;;;;;4.71;43.79;96585.53;4997295;28;20269;-64
2022/03/19 08:36:46;;;;;;;16.60;8.90;;;;;;;5.14;44.88;96550.53;5030918;28;20179;-62
2022/03/19 08:41:58;;;;;;;11.90;7.60;;;;;;;5.58;39.82;96589.38;5031040;28;20249;-64
2022/03/19 08:44:24;;;;;;;10.63;6.20;;;;;;;5.40;39.58;96585.78;5031036;28;20205;-63
2022/03/19 08:46:49;;;;;;;9.90;6.27;;;;;;;5.36;39.55;96583.41;5031097;28;20179;-64
2022/03/19 08:49:15;;;;;;;8.67;6.23;;;;;;;5.88;38.77;96596.75;5031335;28;20228;-61
2022/03/19 08:51:40;;;;;;;12.07;7.33;;;;;;;6.19;40.35;96566.19;5013753;28;20190;-63
2022/03/19 08:54:07;;;;;;;10.23;6.23;;;;;;;6.38;38.88;96579.75;5033038;28;20621;-65
2022/03/19 08:56:34;;;;;;;9.10;5.97;;;;;;;6.44;38.41;96568.63;5016811;28;20194;-59
2022/03/19 08:59:00;;;;;;;11.97;7.10;;;;;;;6.60;39.07;96562.09;5016746;28;20198;-63
2022/03/19 09:01:25;;;;;;;9.67;6.23;;;;;;;6.63;38.49;96560.28;5016863;28;20552;-61
2022/03/19 09:03:52;;;;;;;16.33;7.50;;;;;;;6.79;38.53;96568.91;5016678;28;20192;-60
2022/03/19 09:06:17;;;;;;;10.23;6.47;;;;;;;7.14;36.58;96586.91;5016958;28;20263;-64
2022/03/19 09:08:49;;;;;;;11.27;6.97;;;;;;;7.11;35.88;96579.47;5034728;28;20220;-60
2022/03/19 09:11:18;;;;;;;11.33;7.40;;;;;;;7.31;36.14;96569.34;5034411;28;20204;-60
2022/03/19 09:13:45;;;;;;;11.77;6.47;;;;;;;7.34;36.04;96566.69;5034697;28;20259;-61
2022/03/19 09:16:11;;;;;;;7.13;5.80;;;;;;;7.61;33.91;96604.31;5034633;28;20287;-61
2022/03/19 09:18:36;;;;;;;7.87;6.20;;;;;;;7.90;35.19;96549.09;5016557;28;20186;-63
2022/03/19 09:21:03;;;;;;;10.10;6.33;;;;;;;8.22;35.37;96561.97;5034236;28;20280;-62
2022/03/19 09:23:28;;;;;;;13.00;7.03;;;;;;;8.61;34.45;96578.81;5034554;28;20189;-65
2022/03/19 09:25:54;;;;;;;9.90;5.67;;;;;;;8.26;33.92;96578.69;5034165;28;20578;-64
2022/03/19 09:28:20;;;;;;;12.43;7.53;;;;;;;7.75;34.79;96565.78;5034124;28;20214;-65
2022/03/19 09:30:46;;;;;;;9.03;6.40;;;;;;;8.12;34.49;96552.31;5034186;28;20198;-65
2022/03/19 09:33:11;;;;;;;10.80;6.50;;;;;;;8.22;35.17;96544.22;5034533;28;20269;-65
2022/03/19 09:35:37;;;;;;;13.03;6.97;;;;;;;8.38;37.85;96503.84;5016309;28;20618;-66
2022/03/19 09:38:03;;;;;;;9.77;7.30;;;;;;;8.31;36.49;96526.13;5034286;28;20186;-65
2022/03/19 09:40:29;;;;;;;12.10;6.80;;;;;;;7.58;36.08;96523.47;5034088;28;20202;-65
2022/03/19 09:42:57;;;;;;;9.77;6.20;;;;;;;7.38;35.40;96538.66;5016047;28;20198;-65
2022/03/19 09:45:23;;;;;;;9.00;6.50;;;;;;;7.70;34.00;96533.94;5033774;28;20212;-65
2022/03/19 09:47:51;;;;;;;8.77;6.20;;;;;;;7.06;36.06;96496.19;5033824;28;20249;-65
2022/03/19 09:50:23;;;;;;;13.37;6.30;;;;;;;6.81;37.44;96502.31;5033918;28;20233;-64
2022/03/19 09:52:54;;;;;;;10.63;6.80;;;;;;;7.05;36.69;96483.63;5033723;28;20212;-64
2022/03/19 09:55:21;;;;;;;10.23;7.03;;;;;;;6.70;36.63;96503.56;5033678;28;20189;-64
2022/03/19 09:57:47;;;;;;;9.93;6.90;;;;;;;6.42;38.41;96492.88;5033833;28;20186;-65
2022/03/19 10:00:13;;;;;;;10.10;6.97;;;;;;;6.26;38.15;96499.41;5033448;28;20534;-65
2022/03/19 10:03:06;;;;;;;10.73;6.30;;;;;;;6.29;38.76;96481.63;5033705;28;20193;-65
2022/03/19 10:11:15;;;;;;;9.20;6.13;;;;;;;5.46;38.28;96482.19;5018728;28;20258;-65
2022/03/19 10:13:45;;;;;;;9.67;6.00;;;;;;;5.09;38.60;96480.13;5033619;28;20195;-65
2022/03/19 10:16:17;;;;;;;8.90;6.67;;;;;;;4.91;38.75;96475.69;5033231;28;20196;-65
2022/03/19 10:18:43;;;;;;;15.00;6.20;;;;;;;5.24;38.46;96473.72;5033197;28;20805;-65
2022/03/19 10:21:16;;;;;;;8.43;6.33;;;;;;;5.08;39.50;96465.06;5033090;28;20286;-65
2022/03/19 10:23:42;;;;;;;10.23;5.80;;;;;;;5.23;39.55;96459.50;5033659;28;20189;-61
2022/03/19 10:26:21;;;;;;;8.20;5.73;;;;;;;5.15;39.17;96463.97;5015129;28;20203;-62
2022/03/19 10:28:55;;;;;;;9.07;6.03;;;;;;;5.37;38.89;96471.59;5015241;28;20608;-61
2022/03/19 10:31:34;;;;;;;10.43;5.87;;;;;;;5.81;38.16;96483.44;5039150;23;20612;-62
2022/03/19 10:34:00;;;;;;;8.77;5.60;;;;;;;5.71;39.98;96462.78;5014771;28;20212;-61
2022/03/19 10:36:33;;;;;;;7.93;5.70;;;;;;;6.07;38.08;96492.59;5032622;28;20181;-60
2022/03/19 10:39:05;;;;;;;9.23;5.57;;;;;;;6.86;38.17;96486.06;5032476;28;20227;-61
2022/03/19 10:41:34;;;;;;;7.30;5.17;;;;;;;6.79;37.50;96497.31;5032891;28;20182;-61
2022/03/19 10:44:10;;;;;;;9.67;5.10;;;;;;;6.35;37.56;96483.09;5032602;28;20184;-61
2022/03/19 10:46:36;;;;;;;8.13;5.83;;;;;;;7.22;36.34;96507.31;5032507;28;20183;-60
2022/03/19 10:49:03;;;;;;;8.47;5.80;;;;;;;7.71;36.85;96495.09;5032372;28;20225;-61
2022/03/19 10:51:31;;;;;;;8.37;5.67;;;;;;;8.22;35.66;96503.69;5014611;28;20174;-65
2022/03/19 10:53:58;;;;;;;10.67;5.27;;;;;;;8.96;34.63;96520.47;5014641;28;20179;-62
2022/03/19 10:56:24;;;;;;;7.27;4.77;;;;;;;9.10;33.26;96535.84;5032523;28;20570;-64
2022/03/19 10:58:49;;;;;;;9.53;5.20;;;;;;;8.40;33.63;96548.50;5032393;28;20202;-60
2022/03/19 11:01:16;;;;;;;11.37;5.53;;;;;;;8.00;35.17;96503.03;5032624;28;20202;-60
2022/03/19 11:03:45;;;;;;;10.13;5.77;;;;;;;7.61;34.59;96515.72;5032219;28;20578;-60
2022/03/19 11:06:10;;;;;;;11.60;5.77;;;;;;;7.79;35.41;96498.94;5032466;28;20674;-63
2022/03/19 11:08:48;;;;;;;9.83;5.07;;;;;;;8.26;36.84;96495.09;5032067;28;20292;-64
2022/03/19 11:11:21;;;;;;;7.63;5.80;;;;;;;9.20;36.46;96468.53;5015236;28;20213;-60
2022/03/19 11:13:49;;;;;;;7.23;5.53;;;;;;;9.92;33.15;96537.56;5032234;28;20201;-64
2022/03/19 11:16:17;;;;;;;9.10;5.97;;;;;;;10.31;32.81;96518.63;5055981;23;20245;-61
2022/03/19 11:18:43;;;;;;;5.77;4.37;;;;;;;10.25;32.01;96524.84;5051604;28;20587;-61
2022/03/19 11:21:10;;;;;;;8.03;5.10;;;;;;;10.52;31.21;96533.56;5052330;28;20233;-64
2022/03/19 11:23:55;;;;;;;6.50;5.23;;;;;;;10.55;33.14;96491.84;5052781;28;20547;-64
2022/03/19 11:26:28;;;;;;;6.03;5.30;;;;;;;10.80;31.26;96528.59;5051933;28;20202;-60
2022/03/19 11:28:54;;;;;;;7.87;5.23;;;;;;;11.08;31.80;96517.69;5052009;28;20213;-61
2022/03/19 11:31:27;;;;;;;7.80;5.40;;;;;;;11.03;30.45;96532.38;5052258;28;20204;-65
2022/03/19 11:33:58;;;;;;;7.67;5.83;;;;;;;10.07;31.99;96500.38;5050453;28;20192;-65
2022/03/19 11:36:24;;;;;;;9.70;6.97;;;;;;;9.90;31.22;96501.28;5051651;28;20209;-65
2022/03/19 11:38:52;;;;;;;7.93;5.53;;;;;;;9.66;31.55;96502.53;5051644;28;20174;-65
2022/03/19 11:41:25;;;;;;;8.50;5.80;;;;;;;9.35;32.01;96499.94;5052062;28;20281;-64
2022/03/19 11:44:17;;;;;;;10.13;5.60;;;;;;;10.16;31.47;96499.91;5051434;28;20170;-64
2022/03/19 11:46:59;;;;;;;7.47;5.60;;;;;;;10.56;30.56;96501.97;5051571;28;20181;-60
2022/03/19 11:49:52;;;;;;;8.63;5.87;;;;;;;11.18;31.02;96487.41;5050131;28;20308;-65
2022/03/19 11:52:26;;;;;;;10.10;5.57;;;;;;;11.27;29.88;96497.09;5050539;28;20212;-61
2022/03/19 11:55:04;;;;;;;9.50;5.33;;;;;;;11.70;30.15;96491.94;5051609;28;20255;-65
2022/03/19 11:57:58;;;;;;;7.80;4.70;;;;;;;11.99;30.15;96484.28;5040022;23;20309;-61